createdAt,value
2018-03-26T00:00:16.006Z,53.40
2018-03-26T00:02:43.604Z,53.60
2018-03-26T00:05:11.972Z,53.50
2018-03-26T00:07:40.328Z,53.60
2018-03-26T00:10:07.917Z,53.60
2018-03-26T00:12:36.260Z,53.70
2018-03-26T00:15:03.868Z,53.60
2018-03-26T00:17:31.492Z,53.70
2018-03-26T00:19:59.094Z,53.40
2018-03-26T00:22:26.679Z,53.30
2018-03-26T00:24:54.286Z,53.00
2018-03-26T00:27:22.640Z,53.10
2018-03-26T00:29:50.240Z,53.00
2018-03-26T00:32:18.642Z,53.60
2018-03-26T00:34:46.247Z,53.60
2018-03-26T00:37:13.848Z,53.70
2018-03-26T00:39:41.480Z,53.70
2018-03-26T00:42:09.105Z,53.90
2018-03-26T00:44:36.686Z,54.40
2018-03-26T00:47:04.311Z,54.60
2018-03-26T00:49:31.889Z,54.80
2018-03-26T00:51:59.498Z,55.40
2018-03-26T00:54:27.890Z,56.80
2018-03-26T00:56:55.608Z,56.80
2018-03-26T00:59:23.208Z,56.80
2018-03-26T01:01:51.565Z,56.60
2018-03-26T01:04:19.158Z,56.60
2018-03-26T01:06:46.764Z,56.70
2018-03-26T01:09:14.347Z,56.90
2018-03-26T01:11:42.084Z,57.00
2018-03-26T01:14:09.676Z,56.80
2018-03-26T01:16:37.282Z,55.90
2018-03-26T01:19:04.852Z,55.10
2018-03-26T01:21:32.484Z,55.30
2018-03-26T01:24:00.360Z,55.50
2018-03-26T01:26:27.957Z,55.10
2018-03-26T01:28:55.547Z,54.80
2018-03-26T01:31:23.168Z,54.90
2018-03-26T01:33:50.754Z,54.70
2018-03-26T01:36:18.369Z,54.60
2018-03-26T01:38:46.707Z,54.80
2018-03-26T01:41:14.339Z,54.70
2018-03-26T01:43:41.948Z,54.40
2018-03-26T01:46:10.331Z,54.40
2018-03-26T01:48:37.898Z,54.40
2018-03-26T01:51:06.274Z,54.30
2018-03-26T01:53:34.705Z,54.90
2018-03-26T01:56:02.304Z,54.90
2018-03-26T01:58:30.676Z,55.10
2018-03-26T02:00:58.272Z,55.10
2018-03-26T02:03:25.897Z,55.20
2018-03-26T02:05:54.268Z,55.80
2018-03-26T02:08:22.104Z,55.80
2018-03-26T02:10:49.692Z,55.60
2018-03-26T02:13:17.296Z,55.60
2018-03-26T02:15:44.864Z,56.00
2018-03-26T02:18:12.494Z,55.80
2018-03-26T02:20:40.089Z,55.40
2018-03-26T02:23:07.690Z,55.80
2018-03-26T02:25:36.226Z,55.90
2018-03-26T02:28:03.843Z,56.00
2018-03-26T02:30:31.421Z,55.90
2018-03-26T02:32:59.788Z,56.00
2018-03-26T02:35:27.372Z,55.90
2018-03-26T02:37:55.747Z,56.40
2018-03-26T02:40:23.362Z,56.40
2018-03-26T02:42:50.944Z,56.50
2018-03-26T09:09:05.079Z,51.20
2018-03-26T09:11:33.435Z,51.80
2018-03-26T09:14:01.000Z,51.20
2018-03-26T09:16:28.586Z,51.70
2018-03-26T09:18:56.164Z,50.80
2018-03-26T09:21:23.793Z,51.00
2018-03-26T09:23:51.383Z,49.70
2018-03-26T09:26:19.740Z,49.60
2018-03-26T09:28:47.304Z,49.60
2018-03-26T09:31:15.659Z,48.30
2018-03-26T09:33:43.265Z,48.30
2018-03-26T09:36:10.868Z,47.90
2018-03-26T09:38:38.469Z,48.10
2018-03-26T09:41:06.833Z,48.20
2018-03-26T09:43:34.411Z,48.10
2018-03-26T09:46:02.795Z,47.50
2018-03-26T09:48:31.286Z,47.10
2018-03-26T09:50:58.888Z,47.10
2018-03-26T09:53:26.535Z,47.10
2018-03-26T09:55:54.095Z,48.20
2018-03-26T09:58:21.675Z,48.30
2018-03-26T10:00:49.290Z,48.30
2018-03-26T10:03:16.853Z,47.50
2018-03-26T10:05:44.487Z,46.80
2018-03-26T10:08:12.101Z,47.50
2018-03-26T10:10:39.697Z,47.00
2018-03-26T10:13:07.288Z,45.90
2018-03-26T10:15:34.862Z,46.80
2018-03-26T10:18:02.513Z,46.20
2018-03-26T10:20:30.091Z,46.80
2018-03-26T10:22:57.693Z,46.00
2018-03-26T10:25:25.314Z,45.90
2018-03-26T10:27:54.570Z,46.10
2018-03-26T10:30:22.915Z,46.30
2018-03-26T10:32:50.492Z,46.20
2018-03-26T10:35:18.858Z,45.60
2018-03-26T10:37:46.450Z,45.60
2018-03-26T10:40:14.799Z,45.10
2018-03-26T10:42:42.405Z,45.00
2018-03-26T10:45:09.968Z,45.00
2018-03-26T10:47:37.566Z,44.10
2018-03-26T10:50:05.143Z,44.10
2018-03-26T10:52:32.766Z,44.50
2018-03-26T10:55:00.355Z,44.00
2018-03-26T10:57:27.960Z,44.20
2018-03-26T10:59:55.539Z,43.70
2018-03-26T11:02:23.133Z,43.80
2018-03-26T11:04:50.713Z,43.70
2018-03-26T11:07:18.330Z,43.30
2018-03-26T11:09:45.909Z,43.20
2018-03-26T11:12:13.534Z,42.80
2018-03-26T11:14:41.144Z,43.60
2018-03-26T11:17:08.752Z,44.10
2018-03-26T11:19:36.332Z,43.80
2018-03-26T11:22:03.938Z,43.50
2018-03-26T11:24:31.517Z,43.40
2018-03-26T11:26:59.869Z,43.70
2018-03-26T11:29:27.459Z,43.70
2018-03-26T11:31:55.796Z,44.30
2018-03-26T11:34:23.396Z,44.20
2018-03-26T11:36:51.724Z,44.80
2018-03-26T11:39:19.680Z,44.80
2018-03-26T11:41:47.293Z,44.40
2018-03-26T11:44:15.654Z,44.20
2018-03-26T11:46:43.249Z,44.20
2018-03-26T11:49:11.615Z,45.20
2018-03-26T11:51:40.026Z,45.20
2018-03-26T11:54:07.629Z,45.20
2018-03-26T11:56:35.264Z,45.00
2018-03-26T11:59:02.852Z,44.30
2018-03-26T12:01:30.498Z,44.40
2018-03-26T12:03:58.097Z,43.90
2018-03-26T12:06:26.444Z,43.50
2018-03-26T12:08:54.051Z,43.50
2018-03-26T12:11:22.382Z,43.30
2018-03-26T12:13:49.993Z,43.30
2018-03-26T12:16:17.568Z,43.30
2018-03-26T12:18:45.140Z,43.10
2018-03-26T12:21:12.732Z,42.50
2018-03-26T12:23:52.220Z,41.70
2018-03-26T12:26:19.807Z,41.60
2018-03-26T12:28:59.440Z,41.40
2018-03-26T12:31:27.036Z,41.70
2018-03-26T12:34:06.333Z,42.50
2018-03-26T12:36:33.896Z,41.10
2018-03-26T12:39:02.413Z,40.20
2018-03-26T12:41:30.749Z,39.50
2018-03-26T12:43:58.376Z,39.50
2018-03-26T12:46:46.749Z,39.70
2018-03-26T12:49:15.043Z,40.10
2018-03-26T12:51:54.570Z,40.30
2018-03-26T12:54:22.153Z,39.50
2018-03-26T12:56:55.506Z,39.00
2018-03-26T12:59:23.094Z,39.20
2018-03-26T13:02:02.335Z,38.90
2018-03-26T13:04:29.925Z,39.40
2018-03-26T13:06:57.527Z,39.20
2018-03-26T13:09:25.126Z,38.90
2018-03-26T13:11:53.497Z,37.40
2018-03-26T13:14:21.088Z,37.40
2018-03-26T13:16:49.423Z,36.80
2018-03-26T13:19:17.016Z,36.80
2018-03-26T13:21:45.361Z,35.70
2018-03-26T13:24:12.950Z,35.70
2018-03-26T13:26:40.605Z,35.50
2018-03-26T13:29:08.182Z,36.00
2018-03-26T13:31:36.564Z,36.10
2018-03-26T13:34:04.124Z,36.10
2018-03-26T13:36:32.528Z,36.10
2018-03-26T13:39:00.098Z,36.10
2018-03-26T13:41:27.702Z,37.10
2018-03-26T13:43:55.294Z,37.60
2018-03-26T13:46:22.908Z,38.20
2018-03-26T13:48:50.473Z,38.20
2018-03-26T13:51:18.067Z,39.00
2018-03-26T13:53:45.624Z,40.60
2018-03-26T13:56:13.975Z,41.30
2018-03-26T13:58:41.556Z,41.20
2018-03-26T14:01:09.217Z,41.20
2018-03-26T14:03:37.635Z,40.90
2018-03-26T14:06:05.230Z,40.90
2018-03-26T14:08:44.634Z,41.10
2018-03-26T14:11:24.194Z,40.80
2018-03-26T14:14:03.589Z,41.20
2018-03-26T14:16:43.124Z,41.50
2018-03-26T14:19:10.696Z,41.60
2018-03-26T14:21:38.322Z,42.00
2018-03-26T14:24:09.172Z,43.40
2018-03-26T14:26:37.502Z,43.90
2018-03-26T14:29:05.087Z,43.90
2018-03-26T14:31:32.684Z,44.00
2018-03-26T14:34:00.280Z,44.50
2018-03-26T14:36:27.886Z,44.20
2018-03-26T14:38:55.449Z,44.50
2018-03-26T14:41:23.037Z,44.60
2018-03-26T14:43:50.604Z,44.50
2018-03-26T14:46:18.208Z,44.20
2018-03-26T14:48:45.803Z,43.80
2018-03-26T14:51:14.153Z,44.50
2018-03-26T14:53:41.721Z,44.50
2018-03-26T14:56:09.324Z,44.80
2018-03-26T14:58:36.880Z,44.90
2018-03-26T15:01:04.463Z,44.80
2018-03-26T15:03:32.035Z,45.00
2018-03-26T15:05:59.592Z,44.90
2018-03-26T15:08:27.176Z,44.70
2018-03-26T15:10:54.779Z,44.70
2018-03-26T15:13:23.155Z,44.70
2018-03-26T15:15:51.497Z,44.30
2018-03-26T15:18:19.082Z,44.30
2018-03-26T15:20:47.415Z,44.80
2018-03-26T15:23:15.062Z,44.90
2018-03-26T15:25:42.634Z,44.40
2018-03-26T15:28:10.236Z,44.10
2018-03-26T15:30:38.573Z,44.10
2018-03-26T15:33:06.190Z,44.10
2018-03-26T15:35:33.758Z,44.00
2018-03-26T15:38:01.546Z,43.40
2018-03-26T15:40:29.273Z,43.30
2018-03-26T15:42:56.911Z,43.10
2018-03-26T15:45:24.501Z,43.10
2018-03-26T15:47:52.092Z,42.50
2018-03-26T15:50:19.172Z,42.50
2018-03-26T15:52:46.772Z,42.80
2018-03-26T15:55:15.205Z,43.00
2018-03-26T15:57:42.789Z,42.80
2018-03-26T16:00:11.148Z,43.40
2018-03-26T16:02:44.484Z,43.00
2018-03-26T16:05:12.081Z,43.00
2018-03-26T16:07:39.719Z,43.30
2018-03-26T16:10:07.336Z,43.40
2018-03-26T16:12:34.950Z,43.70
2018-03-26T16:15:02.527Z,44.00
2018-03-26T16:17:30.141Z,43.80
2018-03-26T16:19:58.504Z,43.30
2018-03-26T16:22:26.089Z,43.30
2018-03-26T16:24:53.679Z,42.80
2018-03-26T16:27:21.264Z,43.20
2018-03-26T16:29:48.841Z,43.00
2018-03-26T16:32:17.170Z,42.70
2018-03-26T16:34:44.759Z,42.60
2018-03-26T16:37:13.108Z,42.70
2018-03-26T16:39:40.713Z,42.60
2018-03-26T16:45:12.864Z,42.50
2018-03-26T16:47:40.436Z,42.50
2018-03-26T16:50:08.032Z,42.40
2018-03-26T16:52:35.585Z,42.70
2018-03-26T16:55:03.939Z,43.20
2018-03-26T16:57:32.274Z,43.60
2018-03-26T16:59:59.862Z,43.30
2018-03-26T17:02:27.459Z,43.40
2018-03-26T17:04:55.076Z,43.60
2018-03-26T17:07:22.645Z,43.40
2018-03-26T17:09:50.275Z,43.10
2018-03-26T17:12:17.885Z,43.50
2018-03-26T17:14:45.482Z,43.50
2018-03-26T17:17:13.048Z,44.40
2018-03-26T17:19:41.401Z,44.70
2018-03-26T17:22:09.035Z,44.70
2018-03-26T17:24:36.639Z,44.80
2018-03-26T17:27:04.207Z,44.10
2018-03-26T17:29:31.818Z,44.30
2018-03-26T17:31:59.405Z,43.80
2018-03-26T17:34:26.988Z,44.00
2018-03-26T17:36:55.348Z,43.60
2018-03-26T17:39:22.924Z,43.50
2018-03-26T17:41:50.539Z,43.70
2018-03-26T17:44:18.156Z,43.70
2018-03-26T17:46:46.516Z,44.40
2018-03-26T17:49:14.180Z,44.40
2018-03-26T17:51:41.765Z,44.40
2018-03-26T17:54:09.361Z,44.50
2018-03-26T17:56:36.976Z,44.50
2018-03-26T17:59:05.345Z,44.90
2018-03-26T18:01:33.709Z,44.30
2018-03-26T18:04:01.260Z,44.20
2018-03-26T18:06:28.861Z,44.30
2018-03-26T18:08:56.454Z,44.60
2018-03-26T18:11:24.092Z,44.90
2018-03-26T18:13:51.683Z,45.30
2018-03-26T18:16:19.293Z,45.70
2018-03-26T18:18:46.864Z,45.70
2018-03-26T18:21:16.272Z,46.70
2018-03-26T18:23:43.869Z,47.00
2018-03-26T18:26:11.473Z,47.00
2018-03-26T18:28:39.808Z,48.00
2018-03-26T18:31:07.428Z,48.00
2018-03-26T18:33:35.076Z,48.30
2018-03-26T18:36:03.434Z,49.00
2018-03-26T18:38:31.031Z,48.90
2018-03-26T18:40:58.613Z,48.70
2018-03-26T18:43:26.195Z,48.80
2018-03-26T18:45:53.788Z,48.90
2018-03-26T18:48:22.208Z,49.20
2018-03-26T18:50:49.796Z,49.10
2018-03-26T18:53:17.374Z,49.60
2018-03-26T18:55:44.987Z,49.50
2018-03-26T18:58:12.593Z,49.60
2018-03-26T19:00:40.330Z,49.40
2018-03-26T19:03:07.920Z,49.80
2018-03-26T19:05:36.094Z,50.00
2018-03-26T19:08:03.691Z,50.10
2018-03-26T19:10:31.257Z,49.80
2018-03-26T19:12:58.845Z,49.70
2018-03-26T19:15:26.422Z,49.80
2018-03-26T19:17:54.020Z,50.00
2018-03-26T19:20:21.606Z,50.20
2018-03-26T19:22:49.243Z,50.70
2018-03-26T19:25:16.842Z,50.90
2018-03-26T19:27:44.449Z,51.20
2018-03-26T19:30:12.071Z,51.50
2018-03-26T19:32:39.706Z,51.10
2018-03-26T19:35:07.731Z,51.40
2018-03-26T19:37:36.139Z,51.60
2018-03-26T19:40:04.493Z,51.60
2018-03-26T19:42:32.846Z,51.70
2018-03-26T19:45:00.402Z,51.70
2018-03-26T19:47:27.994Z,51.40
2018-03-26T19:49:55.574Z,51.50
2018-03-26T19:52:23.152Z,51.30
2018-03-26T19:54:50.716Z,51.30
2018-03-26T19:57:18.301Z,51.60
2018-03-26T19:59:45.859Z,51.50
2018-03-26T20:02:13.483Z,51.70
2018-03-26T20:04:41.493Z,52.20
2018-03-26T20:07:09.155Z,52.40
2018-03-26T20:09:36.732Z,52.90
2018-03-26T20:12:04.318Z,52.40
2018-03-26T20:14:32.734Z,52.90
2018-03-26T20:17:00.313Z,53.00
2018-03-26T20:19:27.914Z,53.00
2018-03-26T20:21:56.302Z,53.50
2018-03-26T20:24:23.869Z,53.50
2018-03-26T20:26:51.509Z,53.60
2018-03-26T20:29:19.872Z,52.90
2018-03-26T20:31:47.466Z,52.90
2018-03-26T20:34:15.082Z,53.20
2018-03-26T20:36:42.811Z,53.50
2018-03-26T20:39:10.540Z,53.00
2018-03-26T20:41:39.204Z,53.50
2018-03-26T20:44:06.815Z,53.50
2018-03-26T20:46:34.864Z,54.20
2018-03-26T20:49:03.251Z,54.20
2018-03-26T20:51:33.776Z,54.10
2018-03-26T20:54:02.193Z,54.10
2018-03-26T20:56:29.857Z,53.60
2018-03-26T20:58:57.472Z,53.70
2018-03-26T21:01:25.814Z,54.30
2018-03-26T21:03:53.453Z,54.30
2018-03-26T21:06:21.013Z,54.10
2018-03-26T21:08:48.631Z,54.50
2018-03-26T21:11:16.974Z,54.00
2018-03-26T21:13:44.586Z,54.00
2018-03-26T21:16:12.160Z,53.70
2018-03-26T21:18:39.736Z,53.80
2018-03-26T21:21:07.352Z,53.70
2018-03-26T21:23:35.702Z,54.30
2018-03-26T21:26:03.320Z,54.20
2018-03-26T21:28:30.898Z,53.90
2018-03-26T21:30:58.514Z,54.40
2018-03-26T21:33:26.880Z,55.20
2018-03-26T21:35:55.297Z,55.30
2018-03-26T21:38:22.890Z,55.20
2018-03-26T21:40:50.499Z,55.10
2018-03-26T21:43:18.869Z,55.70
2018-03-26T21:45:47.253Z,55.80
2018-03-26T21:48:15.676Z,56.20
2018-03-26T21:50:43.334Z,56.10
2018-03-26T21:53:10.969Z,55.90
2018-03-26T21:55:39.438Z,56.00
2018-03-26T21:58:06.999Z,56.00
2018-03-26T22:00:35.358Z,57.20
2018-03-26T22:03:03.854Z,57.20
2018-03-26T22:05:32.250Z,57.60
2018-03-26T22:07:59.820Z,57.50
2018-03-26T22:10:27.412Z,57.80
2018-03-26T22:12:54.974Z,58.40
2018-03-26T22:15:22.593Z,58.80
2018-03-26T22:17:50.165Z,59.20
2018-03-26T22:20:17.763Z,59.30
2018-03-26T22:22:46.106Z,59.20
2018-03-26T22:25:13.753Z,59.10
2018-03-26T22:27:41.383Z,59.40
2018-03-26T22:30:09.000Z,59.20
2018-03-26T22:32:36.608Z,59.20
2018-03-26T22:35:04.884Z,59.60
2018-03-26T22:37:32.497Z,59.30
2018-03-26T22:40:00.110Z,59.10
2018-03-26T22:42:27.733Z,59.10
2018-03-26T22:44:55.338Z,58.90
2018-03-26T22:47:22.997Z,58.90
2018-03-26T22:49:50.551Z,59.10
2018-03-26T22:52:18.142Z,59.00
2018-03-26T22:54:45.700Z,59.20
2018-03-26T22:57:13.296Z,59.50
2018-03-26T22:59:41.643Z,59.50
2018-03-26T23:02:09.234Z,59.50
2018-03-26T23:04:37.634Z,59.80
2018-03-26T23:07:05.985Z,59.50
2018-03-26T23:09:33.569Z,59.40
2018-03-26T23:12:01.954Z,59.70
2018-03-26T23:14:30.287Z,60.00
2018-03-26T23:16:57.909Z,59.90
2018-03-26T23:19:25.517Z,59.70
2018-03-26T23:21:53.130Z,60.00
2018-03-26T23:24:20.712Z,60.40
2018-03-26T23:26:48.303Z,60.60
2018-03-26T23:29:15.876Z,61.10
2018-03-26T23:31:44.234Z,62.00
2018-03-26T23:34:11.794Z,62.00
2018-03-26T23:36:39.387Z,62.30
2018-03-26T23:39:07.732Z,62.20
2018-03-26T23:41:35.317Z,62.20
2018-03-26T23:44:03.696Z,62.50
2018-03-26T23:46:32.062Z,63.30
2018-03-26T23:48:59.650Z,63.30
2018-03-26T23:51:27.219Z,64.00
2018-03-26T23:53:54.823Z,64.90
2018-03-26T23:56:22.380Z,64.80
2018-03-26T23:58:49.955Z,64.40
